createdAt,value
2023-03-05T00:01:27.357Z,94786.25
2023-03-05T00:03:56.155Z,94779.41
2023-03-05T00:06:27.608Z,94772.69
2023-03-05T00:08:56.807Z,94776.81
2023-03-05T00:11:24.343Z,94763.75
2023-03-05T00:13:55.099Z,94778.38
2023-03-05T00:16:26.832Z,94782.31
2023-03-05T00:18:55.701Z,94782.41
2023-03-05T00:21:25.690Z,94779.84
2023-03-05T00:23:54.614Z,94786.69
2023-03-05T00:26:25.747Z,94779.09
2023-03-05T00:28:52.747Z,94777.56
2023-03-05T00:31:31.995Z,94777.75
2023-03-05T00:34:11.922Z,94776.94
2023-03-05T00:36:45.605Z,94779.50
2023-03-05T00:39:13.113Z,94776.09
2023-03-05T00:41:40.427Z,94776.59
2023-03-05T00:44:07.473Z,94777.22
2023-03-05T00:46:34.626Z,94759.13
2023-03-05T00:49:01.365Z,94768.09
2023-03-05T00:51:28.508Z,94760.34
2023-03-05T00:53:55.929Z,94766.16
2023-03-05T00:56:23.689Z,94752.78
2023-03-05T00:58:50.471Z,94751.03
2023-03-05T01:01:17.486Z,94749.38
2023-03-05T01:03:44.264Z,94746.16
2023-03-05T01:06:13.621Z,94761.16
2023-03-05T01:08:40.492Z,94743.78
2023-03-05T01:11:09.034Z,94746.06
2023-03-05T01:13:36.632Z,94740.47
2023-03-05T01:16:04.399Z,94727.44
2023-03-05T01:18:31.274Z,94726.22
2023-03-05T01:20:58.143Z,94723.13
2023-03-05T01:23:24.984Z,94728.59
2023-03-05T01:25:58.303Z,94724.75
2023-03-05T01:28:26.752Z,94724.56
2023-03-05T01:30:53.551Z,94719.41
2023-03-05T01:33:20.530Z,94717.53
2023-03-05T01:35:49.050Z,94711.53
2023-03-05T01:38:16.717Z,94715.78
2023-03-05T01:40:44.166Z,94712.56
2023-03-05T01:43:10.824Z,94717.22
2023-03-05T01:45:39.347Z,94712.88
2023-03-05T01:48:06.121Z,94695.00
2023-03-05T01:50:33.508Z,94703.97
2023-03-05T01:53:04.742Z,94691.03
2023-03-05T01:55:34.270Z,94693.84
2023-03-05T01:58:06.253Z,94692.09
2023-03-05T02:00:38.436Z,94702.13
2023-03-05T02:03:08.758Z,94690.00
2023-03-05T02:05:38.259Z,94674.81
2023-03-05T02:08:12.325Z,94673.06
2023-03-05T02:10:51.992Z,94666.25
2023-03-05T02:13:25.394Z,94670.13
2023-03-05T02:15:55.186Z,94675.50
2023-03-05T02:18:22.908Z,94667.97
2023-03-05T02:20:56.345Z,94657.84
2023-03-05T02:23:27.463Z,94660.41
2023-03-05T02:25:54.688Z,94663.72
2023-03-05T02:28:44.136Z,94658.34
2023-03-05T02:31:18.990Z,94659.28
2023-03-05T02:33:46.855Z,94659.94
2023-03-05T02:36:13.822Z,94640.06
2023-03-05T02:38:42.450Z,94642.31
2023-03-05T02:41:10.312Z,94643.66
2023-03-05T02:43:37.432Z,94654.00
2023-03-05T02:46:04.811Z,94640.97
2023-03-05T02:48:31.938Z,94636.94
2023-03-05T02:50:59.186Z,94617.59
2023-03-05T02:53:26.506Z,94628.75
2023-03-05T02:55:53.369Z,94630.19
2023-03-05T02:58:20.110Z,94630.91
2023-03-05T03:00:47.128Z,94622.44
2023-03-05T03:03:14.231Z,94618.88
2023-03-05T03:05:41.331Z,94623.03
2023-03-05T03:08:08.271Z,94622.94
2023-03-05T03:10:35.018Z,94613.41
2023-03-05T03:13:01.818Z,94612.81
2023-03-05T03:15:28.557Z,94612.59
2023-03-05T03:17:56.029Z,94602.84
2023-03-05T03:20:23.259Z,94607.81
2023-03-05T03:22:49.994Z,94604.16
2023-03-05T03:25:20.887Z,94598.78
2023-03-05T03:27:47.654Z,94591.34
2023-03-05T03:30:16.066Z,94601.66
2023-03-05T03:32:43.166Z,94606.19
2023-03-05T03:35:11.478Z,94595.03
2023-03-05T03:37:38.449Z,94594.69
2023-03-05T03:40:07.001Z,94597.00
2023-03-05T03:42:34.019Z,94598.31
2023-03-05T03:45:02.434Z,94593.97
2023-03-05T03:47:31.067Z,94595.59
2023-03-05T03:49:59.113Z,94602.03
2023-03-05T03:52:26.765Z,94596.03
2023-03-05T03:54:55.796Z,94586.72
2023-03-05T03:57:22.867Z,94576.97
2023-03-05T03:59:50.524Z,94588.16
2023-03-05T04:02:17.739Z,94592.28
2023-03-05T04:04:44.731Z,94586.59
2023-03-05T04:07:11.542Z,94575.94
2023-03-05T04:09:38.632Z,94591.56
2023-03-05T04:12:05.555Z,94586.50
2023-03-05T04:14:32.418Z,94582.75
2023-03-05T04:16:59.148Z,94579.88
2023-03-05T04:19:26.019Z,94572.84
2023-03-05T04:21:52.737Z,94569.00
2023-03-05T04:24:19.519Z,94572.19
2023-03-05T04:26:46.242Z,94565.06
2023-03-05T04:29:13.037Z,94562.50
2023-03-05T04:31:39.765Z,94561.22
2023-03-05T04:34:06.477Z,94560.06
2023-03-05T04:36:33.351Z,94562.06
2023-03-05T04:39:00.099Z,94567.88
2023-03-05T04:41:26.947Z,94553.66
2023-03-05T04:43:53.707Z,94554.34
2023-03-05T04:46:20.489Z,94549.88
2023-03-05T04:48:47.236Z,94549.03
2023-03-05T04:51:13.935Z,94557.69
2023-03-05T04:53:40.666Z,94557.94
2023-03-05T04:56:07.952Z,94553.56
2023-03-05T04:58:34.676Z,94550.88
2023-03-05T05:01:04.014Z,94553.38
2023-03-05T05:03:31.372Z,94542.69
2023-03-05T05:06:00.818Z,94543.28
2023-03-05T05:08:28.281Z,94545.88
2023-03-05T05:11:00.264Z,94542.22
2023-03-05T05:13:28.083Z,94541.31
2023-03-05T05:15:55.218Z,94531.44
2023-03-05T05:18:22.231Z,94527.06
2023-03-05T05:20:49.610Z,94513.41
2023-03-05T05:23:17.798Z,94518.13
2023-03-05T05:25:45.516Z,94512.94
2023-03-05T05:28:12.931Z,94512.69
2023-03-05T05:30:39.754Z,94525.44
2023-03-05T05:33:06.517Z,94519.56
2023-03-05T05:35:33.409Z,94518.56
2023-03-05T05:38:00.182Z,94528.03
2023-03-05T05:40:26.969Z,94529.38
2023-03-05T05:42:54.331Z,94526.44
2023-03-05T05:45:21.072Z,94526.59
2023-03-05T05:47:47.893Z,94523.50
2023-03-05T05:50:15.015Z,94526.59
2023-03-05T05:52:41.844Z,94516.47
2023-03-05T05:55:09.570Z,94514.59
2023-03-05T05:57:36.347Z,94512.72
2023-03-05T06:00:08.791Z,94528.69
2023-03-05T06:02:42.183Z,94523.06
2023-03-05T06:05:12.918Z,94518.13
2023-03-05T06:07:39.657Z,94525.28
2023-03-05T06:10:07.638Z,94522.78
2023-03-05T06:12:34.344Z,94515.97
2023-03-05T06:15:01.182Z,94517.00
2023-03-05T06:17:30.718Z,94520.97
2023-03-05T06:19:58.853Z,94529.19
2023-03-05T06:22:25.801Z,94522.88
2023-03-05T06:24:52.546Z,94525.34
2023-03-05T06:27:19.324Z,94524.94
2023-03-05T06:29:46.061Z,94518.78
2023-03-05T06:32:12.850Z,94520.25
2023-03-05T06:34:39.662Z,94528.22
2023-03-05T06:37:06.424Z,94518.94
2023-03-05T06:39:33.585Z,94520.44
2023-03-05T06:42:00.361Z,94528.66
2023-03-05T06:44:27.179Z,94524.56
2023-03-05T06:46:53.914Z,94523.31
2023-03-05T06:49:20.680Z,94530.34
2023-03-05T06:51:47.596Z,94518.38
2023-03-05T06:54:16.778Z,94524.28
2023-03-05T06:56:46.738Z,94522.19
2023-03-05T06:59:15.802Z,94520.63
2023-03-05T07:01:43.752Z,94523.13
2023-03-05T07:04:12.557Z,94521.25
2023-03-05T07:06:40.046Z,94525.91
2023-03-05T07:09:10.233Z,94520.31
2023-03-05T07:11:36.977Z,94504.53
2023-03-05T07:14:04.451Z,94517.75
2023-03-05T07:16:34.064Z,94520.59
2023-03-05T07:19:03.595Z,94512.00
2023-03-05T07:21:33.422Z,94505.06
2023-03-05T07:24:02.114Z,94500.84
2023-03-05T07:26:29.122Z,94493.88
2023-03-05T07:28:57.187Z,94498.50
2023-03-05T07:31:32.028Z,94506.97
2023-03-05T07:34:01.225Z,94495.69
2023-03-05T07:36:28.891Z,94498.03
2023-03-05T07:38:55.969Z,94496.97
2023-03-05T07:41:23.863Z,94489.31
2023-03-05T07:43:53.586Z,94490.72
2023-03-05T07:46:25.314Z,94489.81
2023-03-05T07:48:54.673Z,94489.19
2023-03-05T07:51:23.293Z,94488.38
2023-03-05T07:53:51.951Z,94490.50
2023-03-05T07:56:26.807Z,94493.81
2023-03-05T07:58:53.558Z,94496.88
2023-03-05T08:01:20.395Z,94496.66
2023-03-05T08:03:47.180Z,94490.06
2023-03-05T08:06:13.988Z,94494.97
2023-03-05T08:08:40.995Z,94493.50
2023-03-05T08:11:11.431Z,94481.34
2023-03-05T08:13:39.431Z,94491.25
2023-03-05T08:16:18.233Z,94492.19
2023-03-05T08:18:46.072Z,94487.72
2023-03-05T08:21:22.637Z,94486.19
2023-03-05T08:23:49.762Z,94483.13
2023-03-05T08:26:20.193Z,94488.69
2023-03-05T08:28:47.414Z,94485.63
2023-03-05T08:31:16.305Z,94482.88
2023-03-05T08:33:43.712Z,94485.38
2023-03-05T08:36:11.084Z,94477.13
2023-03-05T08:38:37.882Z,94481.13
2023-03-05T08:41:05.111Z,94473.72
2023-03-05T08:43:31.976Z,94478.31
2023-03-05T08:46:01.154Z,94479.94
2023-03-05T08:48:28.905Z,94473.94
2023-03-05T08:50:56.472Z,94473.09
2023-03-05T08:53:23.924Z,94469.78
2023-03-05T08:55:58.329Z,94467.47
2023-03-05T08:58:25.372Z,94471.56
2023-03-05T09:00:52.395Z,94453.53
2023-03-05T09:03:19.553Z,94459.19
2023-03-05T09:05:46.501Z,94464.16
2023-03-05T09:08:14.137Z,94470.03
2023-03-05T09:10:44.879Z,94473.56
2023-03-05T09:18:11.230Z,94465.50
2023-03-05T09:20:38.586Z,94461.03
2023-03-05T09:23:05.384Z,94441.91
2023-03-05T09:25:32.131Z,94450.03
2023-03-05T09:27:58.878Z,94448.56
2023-03-05T09:30:25.639Z,94442.34
2023-03-05T09:32:52.730Z,94448.94
2023-03-05T09:35:19.604Z,94435.88
2023-03-05T09:37:46.970Z,94444.38
2023-03-05T09:40:18.498Z,94442.72
2023-03-05T09:42:57.288Z,94441.97
2023-03-05T09:45:32.172Z,94439.03
2023-03-05T09:48:23.822Z,94446.19
2023-03-05T09:51:05.277Z,94439.41
2023-03-05T09:53:33.869Z,94438.81
2023-03-05T09:56:12.725Z,94437.19
2023-03-05T09:58:54.640Z,94432.50
2023-03-05T10:01:33.443Z,94432.50
2023-03-05T10:04:12.532Z,94429.75
2023-03-05T10:07:13.740Z,94429.63
2023-03-05T10:09:55.540Z,94413.94
2023-03-05T10:12:44.965Z,94421.53
2023-03-05T10:15:16.847Z,94421.78
2023-03-05T10:17:48.264Z,94426.72
2023-03-05T10:20:30.715Z,94409.75
2023-03-05T10:23:10.658Z,94418.34
2023-03-05T10:25:58.383Z,94411.94
2023-03-05T10:28:44.441Z,94409.69
2023-03-05T10:31:13.980Z,94407.66
2023-03-05T10:34:00.737Z,94402.97
2023-03-05T10:37:17.836Z,94401.03
2023-03-05T10:40:09.935Z,94394.00
2023-03-05T10:42:48.401Z,94393.88
2023-03-05T10:45:18.791Z,94399.25
2023-03-05T10:48:00.067Z,94383.66
2023-03-05T10:50:33.971Z,94389.72
2023-03-05T10:53:17.652Z,94387.81
2023-03-05T10:55:44.564Z,94377.53
2023-03-05T10:58:14.489Z,94376.47
2023-03-05T11:01:12.781Z,94370.16
2023-03-05T11:04:28.501Z,94361.81
2023-03-05T11:06:55.220Z,94360.88
2023-03-05T11:09:32.466Z,94349.25
2023-03-05T11:12:19.640Z,94364.03
2023-03-05T11:15:12.282Z,94357.88
2023-03-05T11:18:07.000Z,94356.38
2023-03-05T11:20:35.882Z,94352.97
2023-03-05T11:23:24.591Z,94351.72
2023-03-05T11:26:12.655Z,94343.22
2023-03-05T11:28:56.433Z,94331.47
2023-03-05T11:31:27.902Z,94339.41
2023-03-05T11:34:04.240Z,94337.34
2023-03-05T11:36:42.215Z,94336.53
2023-03-05T11:39:22.219Z,94336.94
2023-03-05T11:41:53.610Z,94326.50
2023-03-05T11:44:35.605Z,94327.63
2023-03-05T11:47:25.032Z,94311.69
2023-03-05T11:50:06.215Z,94315.97
2023-03-05T11:52:48.119Z,94313.59
2023-03-05T11:55:26.516Z,94306.78
2023-03-05T11:58:30.453Z,94308.97
2023-03-05T12:00:57.610Z,94304.69
2023-03-05T12:03:37.160Z,94298.53
2023-03-05T12:06:09.652Z,94301.66
2023-03-05T12:08:42.834Z,94296.84
2023-03-05T12:11:31.113Z,94298.75
2023-03-05T12:14:22.903Z,94283.66
2023-03-05T12:17:10.335Z,94279.03
2023-03-05T12:20:00.756Z,94280.06
2023-03-05T12:22:42.399Z,94272.91
2023-03-05T12:25:35.016Z,94265.22
2023-03-05T12:28:03.332Z,94272.47
2023-03-05T12:30:56.523Z,94267.09
2023-03-05T12:33:40.069Z,94256.63
2023-03-05T12:36:21.617Z,94252.16
2023-03-05T12:38:54.207Z,94242.72
2023-03-05T12:41:24.826Z,94241.47
2023-03-05T12:44:07.555Z,94242.81
2023-03-05T12:46:43.263Z,94243.03
2023-03-05T12:49:19.119Z,94232.09
2023-03-05T12:51:48.428Z,94234.94
2023-03-05T12:54:33.754Z,94231.03
2023-03-05T12:57:04.625Z,94229.25
2023-03-05T13:00:21.774Z,94227.28
2023-03-05T13:02:56.273Z,94221.00
2023-03-05T13:05:32.726Z,94216.22
2023-03-05T13:08:16.313Z,94213.50
2023-03-05T13:10:54.402Z,94215.31
2023-03-05T13:13:22.054Z,94202.25
2023-03-05T13:15:50.758Z,94213.72
2023-03-05T13:18:36.057Z,94203.84
2023-03-05T13:21:16.253Z,94206.03
2023-03-05T13:23:58.358Z,94201.75
2023-03-05T13:26:40.277Z,94201.09
2023-03-05T13:29:10.290Z,94199.81
2023-03-05T13:31:49.132Z,94189.53
2023-03-05T13:34:47.310Z,94188.44
2023-03-05T13:37:24.429Z,94193.13
2023-03-05T13:39:57.395Z,94190.88
2023-03-05T13:42:26.310Z,94192.06
2023-03-05T13:44:59.014Z,94190.38
2023-03-05T13:47:29.973Z,94189.97
2023-03-05T13:50:05.968Z,94185.63
2023-03-05T13:52:36.785Z,94188.19
2023-03-05T13:55:12.934Z,94181.56
2023-03-05T13:57:42.362Z,94178.94
2023-03-05T14:00:36.130Z,94180.22
2023-03-05T14:03:14.662Z,94176.78
2023-03-05T14:05:45.568Z,94175.13
2023-03-05T14:08:25.603Z,94171.19
2023-03-05T14:10:54.911Z,94159.75
2023-03-05T14:13:25.163Z,94158.84
2023-03-05T14:16:04.166Z,94164.28
2023-03-05T14:18:31.041Z,94164.19
2023-03-05T14:21:08.964Z,94162.44
2023-03-05T14:23:47.817Z,94162.34
2023-03-05T14:26:35.359Z,94143.13
2023-03-05T14:29:17.646Z,94156.00
2023-03-05T14:31:52.644Z,94152.22
2023-03-05T14:34:34.365Z,94136.56
2023-03-05T14:37:05.516Z,94142.16
2023-03-05T14:39:46.303Z,94142.16
2023-03-05T14:42:50.571Z,94140.44
2023-03-05T14:45:21.424Z,94143.03
2023-03-05T14:47:50.781Z,94135.28
2023-03-05T14:50:23.298Z,94136.22
2023-03-05T14:52:54.012Z,94125.38
2023-03-05T14:55:24.672Z,94135.16
2023-03-05T14:57:55.408Z,94126.41
2023-03-05T15:00:26.015Z,94120.84
2023-03-05T15:02:53.071Z,94115.25
2023-03-05T15:05:20.651Z,94117.66
2023-03-05T15:07:48.540Z,94115.84
2023-03-05T15:10:21.921Z,94116.22
2023-03-05T15:12:50.624Z,94107.94
2023-03-05T15:15:18.512Z,94102.31
2023-03-05T15:17:47.997Z,94096.94
2023-03-05T15:20:25.097Z,94093.13
2023-03-05T15:22:52.529Z,94099.91
2023-03-05T15:25:21.730Z,94091.44
2023-03-05T15:27:50.925Z,94082.63
2023-03-05T15:30:27.307Z,94089.41
2023-03-05T15:32:55.899Z,94080.25
2023-03-05T15:35:24.703Z,94075.53
2023-03-05T15:37:52.672Z,94068.03
2023-03-05T15:40:21.166Z,94066.31
2023-03-05T15:42:48.793Z,94066.63
2023-03-05T15:45:16.505Z,94059.81
2023-03-05T15:47:43.549Z,94057.22
2023-03-05T15:50:11.362Z,94052.31
2023-03-05T15:52:38.096Z,94050.31
2023-03-05T15:55:05.457Z,94040.91
2023-03-05T15:57:36.625Z,94054.78
2023-03-05T16:00:06.872Z,94043.84
2023-03-05T16:02:33.594Z,94051.34
2023-03-05T16:05:00.343Z,94033.56
2023-03-05T16:07:28.387Z,94045.09
2023-03-05T16:09:56.943Z,94041.66
2023-03-05T16:12:29.888Z,94044.88
2023-03-05T16:14:56.531Z,94038.84
2023-03-05T16:17:24.265Z,94045.09
2023-03-05T16:19:54.991Z,94037.97
2023-03-05T16:22:21.972Z,94036.00
2023-03-05T16:24:48.683Z,94032.28
2023-03-05T16:27:15.421Z,94033.41
2023-03-05T16:29:42.212Z,94020.31
2023-03-05T16:32:09.086Z,94029.75
2023-03-05T16:34:35.888Z,94023.19
2023-03-05T16:37:04.691Z,94018.81
2023-03-05T16:39:31.664Z,94008.69
2023-03-05T16:41:58.604Z,94012.13
2023-03-05T16:44:25.372Z,94005.03
2023-03-05T16:46:54.052Z,94004.38
2023-03-05T16:49:21.615Z,94014.78
2023-03-05T16:51:48.969Z,94010.09
2023-03-05T16:54:15.715Z,94018.44
2023-03-05T16:56:42.508Z,94005.50
2023-03-05T16:59:09.425Z,94009.69
2023-03-05T17:01:36.247Z,94009.19
2023-03-05T17:04:03.847Z,94006.47
2023-03-05T17:06:33.248Z,94013.81
2023-03-05T17:09:00.257Z,94005.31
2023-03-05T17:11:27.516Z,94006.00
2023-03-05T17:13:54.400Z,93993.56
2023-03-05T17:16:22.117Z,94003.97
2023-03-05T17:18:49.169Z,93995.19
2023-03-05T17:21:17.128Z,93996.72
2023-03-05T17:23:44.045Z,93991.44
2023-03-05T17:26:15.141Z,93994.03
2023-03-05T17:28:42.762Z,93995.63
2023-03-05T17:31:10.192Z,93983.72
2023-03-05T17:33:39.151Z,93993.50
2023-03-05T17:36:06.535Z,93982.19
2023-03-05T17:38:33.389Z,93990.44
2023-03-05T17:41:00.161Z,93987.44
2023-03-05T17:43:26.910Z,93984.50
2023-03-05T17:45:53.726Z,93995.50
2023-03-05T17:48:20.512Z,93987.97
2023-03-05T17:50:47.335Z,93992.22
2023-03-05T17:53:14.133Z,93992.19
2023-03-05T17:55:40.941Z,93995.94
2023-03-05T17:58:08.242Z,93988.44
2023-03-05T18:00:36.498Z,93999.06
2023-03-05T18:03:04.044Z,93991.28
2023-03-05T18:05:31.389Z,93994.88
2023-03-05T18:07:59.105Z,93991.50
2023-03-05T18:10:27.201Z,93996.13
2023-03-05T18:12:54.812Z,93980.53
2023-03-05T18:15:23.767Z,93978.88
2023-03-05T18:17:51.171Z,93986.69
2023-03-05T18:20:36.619Z,93993.53
2023-03-05T18:23:05.868Z,93979.19
2023-03-05T18:25:32.782Z,93966.31
2023-03-05T18:28:23.358Z,93980.94
2023-03-05T18:30:50.193Z,93976.09
2023-03-05T18:33:25.008Z,93978.97
2023-03-05T18:35:52.804Z,93980.16
2023-03-05T18:38:26.689Z,93984.41
2023-03-05T18:40:55.247Z,93974.16
2023-03-05T18:43:23.864Z,93974.16
2023-03-05T18:45:53.441Z,93966.66
2023-03-05T18:48:20.614Z,93978.88
2023-03-05T18:50:51.375Z,93981.84
2023-03-05T18:53:18.317Z,93980.06
2023-03-05T18:55:45.106Z,93979.69
2023-03-05T18:58:15.807Z,93974.91
2023-03-05T19:00:45.148Z,93979.56
2023-03-05T19:03:12.516Z,93972.16
2023-03-05T19:05:40.642Z,93980.75
2023-03-05T19:08:08.022Z,93982.16
2023-03-05T19:10:35.298Z,93976.41
2023-03-05T19:13:32.228Z,93965.34
2023-03-05T19:16:01.015Z,93974.50
2023-03-05T19:19:20.269Z,93976.56
2023-03-05T19:21:50.932Z,93971.50
2023-03-05T19:24:17.897Z,93962.88
2023-03-05T19:26:45.871Z,93973.94
2023-03-05T19:29:12.892Z,93970.28
2023-03-05T19:31:39.976Z,93965.91
2023-03-05T19:34:07.024Z,93946.50
2023-03-05T19:36:35.569Z,93962.63
2023-03-05T19:39:07.669Z,93964.66
2023-03-05T19:41:35.443Z,93965.63
2023-03-05T19:44:03.001Z,93940.50
2023-03-05T19:46:29.858Z,93963.00
2023-03-05T19:48:56.842Z,93966.44
2023-03-05T19:51:26.318Z,93956.88
2023-03-05T19:53:53.405Z,93954.72
2023-03-05T19:56:20.704Z,93954.41
2023-03-05T19:58:49.159Z,93947.84
2023-03-05T20:01:15.935Z,93952.91
2023-03-05T20:03:47.962Z,93943.91
2023-03-05T20:06:15.019Z,93946.22
2023-03-05T20:08:42.712Z,93952.25
2023-03-05T20:11:16.221Z,93949.22
2023-03-05T20:13:43.688Z,93946.78
2023-03-05T20:16:23.762Z,93945.00
2023-03-05T20:18:53.037Z,93952.25
2023-03-05T20:21:29.292Z,93939.25
2023-03-05T20:23:59.475Z,93938.28
2023-03-05T20:26:26.687Z,93933.38
2023-03-05T20:28:57.014Z,93940.50
2023-03-05T20:31:26.723Z,93938.44
2023-03-05T20:33:54.048Z,93927.78
2023-03-05T20:36:20.908Z,93930.66
2023-03-05T20:38:47.681Z,93928.19
2023-03-05T20:41:18.473Z,93934.19
2023-03-05T20:43:48.921Z,93919.84
2023-03-05T20:46:27.324Z,93929.00
2023-03-05T20:48:59.162Z,93933.38
2023-03-05T20:51:31.751Z,93926.81
2023-03-05T20:54:04.073Z,93924.38
2023-03-05T20:56:32.981Z,93923.81
2023-03-05T20:59:03.902Z,93915.09
2023-03-05T21:01:33.721Z,93928.19
2023-03-05T21:04:01.580Z,93919.72
2023-03-05T21:06:30.230Z,93914.28
2023-03-05T21:08:57.345Z,93905.50
2023-03-05T21:11:24.530Z,93912.06
2023-03-05T21:13:51.316Z,93912.06
2023-03-05T21:16:22.697Z,93907.16
2023-03-05T21:18:51.178Z,93901.97
2023-03-05T21:21:18.347Z,93908.09
2023-03-05T21:23:45.215Z,93904.84
2023-03-05T21:26:13.396Z,93905.50
2023-03-05T21:28:41.162Z,93903.88
2023-03-05T21:31:18.798Z,93895.97
2023-03-05T21:33:46.170Z,93894.44
2023-03-05T21:36:13.132Z,93893.50
2023-03-05T21:38:40.714Z,93882.31
2023-03-05T21:41:07.461Z,93877.94
2023-03-05T21:43:34.436Z,93883.69
2023-03-05T21:46:03.337Z,93879.84
2023-03-05T21:48:30.947Z,93873.00
2023-03-05T21:50:58.614Z,93874.13
2023-03-05T21:53:26.030Z,93878.75
2023-03-05T21:56:28.183Z,93870.28
2023-03-05T21:58:54.995Z,93873.56
2023-03-05T22:01:22.115Z,93872.19
2023-03-05T22:03:49.910Z,93871.25
2023-03-05T22:06:18.801Z,93857.75
2023-03-05T22:08:45.836Z,93861.81
2023-03-05T22:11:15.583Z,93857.75
2023-03-05T22:13:43.115Z,93863.72
2023-03-05T22:16:10.405Z,93848.72
2023-03-05T22:18:37.544Z,93859.78
2023-03-05T22:21:05.217Z,93847.75
2023-03-05T22:23:36.874Z,93861.00
2023-03-05T22:26:07.740Z,93855.00
2023-03-05T22:28:35.799Z,93847.06
2023-03-05T22:31:02.630Z,93848.59
2023-03-05T22:33:30.137Z,93852.00
2023-03-05T22:35:57.056Z,93848.72
2023-03-05T22:38:25.390Z,93840.25
2023-03-05T22:40:53.374Z,93841.88
2023-03-05T22:43:20.610Z,93840.25
2023-03-05T22:45:47.534Z,93831.13
2023-03-05T22:48:14.316Z,93829.34
2023-03-05T22:50:44.003Z,93826.63
2023-03-05T22:53:12.205Z,93832.06
2023-03-05T22:55:42.295Z,93818.97
2023-03-05T22:58:09.401Z,93833.97
2023-03-05T23:00:36.307Z,93818.41
2023-03-05T23:03:03.457Z,93823.34
2023-03-05T23:05:30.238Z,93813.38
2023-03-05T23:07:57.052Z,93817.59
2023-03-05T23:10:27.487Z,93820.31
2023-03-05T23:12:55.975Z,93811.59
2023-03-05T23:15:31.884Z,93796.84
2023-03-05T23:17:59.067Z,93795.34
2023-03-05T23:20:32.499Z,93806.97
2023-03-05T23:22:59.698Z,93810.25
2023-03-05T23:25:30.463Z,93812.97
2023-03-05T23:28:00.564Z,93795.34
2023-03-05T23:30:45.815Z,93794.25
2023-03-05T23:33:20.736Z,93798.50
2023-03-05T23:35:59.823Z,93796.97
2023-03-05T23:38:29.486Z,93797.94
2023-03-05T23:41:01.145Z,93794.13
2023-03-05T23:43:28.137Z,93790.03
2023-03-05T23:45:55.267Z,93792.50
2023-03-05T23:48:24.827Z,93787.84
2023-03-05T23:50:51.692Z,93778.81
2023-03-05T23:53:31.337Z,93783.50
2023-03-05T23:55:58.081Z,93781.84
2023-03-05T23:58:25.004Z,93778.56
